Antonia, Louisiana
Current Conditions -  °F | °C
As of 9:53 PM on Wednesday 28 Jan 2015 (Local Time) from KESF Reporting Station
Clear Clear  
Wind Chill: 57°   Ceiling: Unl
Heat Index: 57°   Visibility: 10mi
Dew Point: 44°   Wind: 7mph
Humidity: 62%   Direction: 220°SW
Pressure: 30.18"   Gusts: NA
Location:  31.538°N, 92.3799°W
Report Text: KESF 290353Z AUTO 22006KT 10SM CLR 14/07 A3018 RMK AO2 SLP220 T01390067
Loading
Personal Weather Stations






























Interactive Weather Map New forecast layout! Learn more

10-Day Weather Forecast

Advertisements
Track Severe Weather on mobile